CST,Max TemperatureF,Mean TemperatureF,Min TemperatureF,Max Dew PointF,MeanDew PointF,Min DewpointF,Max Humidity, Mean Humidity, Min Humidity, Max Sea Level PressureIn, Mean Sea Level PressureIn, Min Sea Level PressureIn, Max VisibilityMiles, Mean VisibilityMiles, Min VisibilityMiles, Max Wind SpeedMPH, Mean Wind SpeedMPH, Max Gust SpeedMPH,PrecipitationIn, CloudCover, Events, WindDirDegrees
2013-1-1,32,24,17,32,21,14,100,90,74,30.26,30.20,30.08,10,8,2,10,6,,0.00,5,Snow,334
2013-1-2,35,22,10,21,14,9,100,66,35,30.25,30.21,30.14,10,10,7,10,3,,0.03,1,,207
2013-1-3,37,30,23,27,23,21,100,76,56,30.39,30.34,30.23,10,10,7,9,6,,0.00,3,,257
2013-1-4,42,34,26,27,23,19,100,65,42,30.43,30.36,30.29,10,10,10,12,4,17,0.00,2,,202
2013-1-5,41,36,32,32,28,21,81,71,60,30.30,30.21,30.12,10,10,10,13,7,21,0.00,5,Rain,203
2013-1-6,35,30,24,30,23,18,93,71,52,30.36,30.29,30.16,10,10,7,21,8,28,0.00,2,,260
2013-1-7,50,37,24,23,21,18,74,55,32,30.35,30.23,30.12,10,10,10,14,8,18,0.00,0,,153
2013-1-8,53,40,28,45,27,21,93,57,28,30.20,30.11,30.04,10,10,10,12,7,18,0.00,3,Rain,157
2013-1-9,53,45,37,46,38,30,100,76,44,30.41,30.35,30.21,10,8,0,9,4,,0.00,3,Fog-Rain,36
2013-1-10,53,46,39,54,45,32,100,95,61,30.35,30.02,29.80,10,8,2,15,10,29,0.13,7,Rain,103
2013-1-11,62,54,46,50,46,43,100,76,48,29.84,29.79,29.73,10,10,10,20,11,26,0.00,2,,169
2013-1-12,59,44,28,45,33,21,100,74,43,30.02,29.92,29.80,10,8,2,14,9,21,0.31,6,Rain-Snow,309
2013-1-13,28,22,17,28,20,14,100,91,80,30.36,30.17,29.96,10,10,10,8,4,,0.00,5,,292
2013-1-14,28,22,15,21,17,14,100,85,68,30.47,30.40,30.36,10,10,7,4,0,,0.00,0,,46
2013-1-15,26,20,14,25,20,12,100,94,80,30.37,30.28,30.16,10,10,7,4,0,,0.00,3,,352
2013-1-16,37,26,14,25,21,12,100,77,56,30.17,30.12,30.06,10,10,7,13,4,20,0.00,0,,221
2013-1-17,41,34,26,32,26,21,100,75,49,30.47,30.34,30.14,10,10,10,14,8,20,0.00,1,,300
2013-1-18,55,40,24,28,24,19,93,54,29,30.48,30.31,30.14,10,10,10,21,9,26,0.00,0,,172
2013-1-19,60,51,42,34,31,27,61,48,34,30.21,30.09,30.00,10,10,10,20,13,31,0.00,0,,230
2013-1-20,42,34,24,30,17,10,75,50,29,30.32,30.27,30.21,10,10,10,10,6,,0.00,0,,351
2013-1-21,28,24,19,14,9,3,74,55,43,30.39,30.35,30.32,10,10,10,17,7,22,0.00,3,,297
2013-1-22,32,24,17,12,5,1,54,46,32,30.40,30.33,30.26,10,10,10,8,3,,0.00,1,,67
2013-1-23,51,34,17,28,20,7,86,60,38,30.35,30.23,30.14,10,10,10,12,3,,0.00,0,,280
2013-1-24,32,24,17,19,9,5,68,49,32,30.48,30.34,30.17,10,10,10,16,9,18,0.00,3,,62
2013-1-25,44,37,30,21,20,12,69,55,37,30.25,30.18,30.10,10,10,10,13,7,13,0.00,3,,245
2013-1-26,55,42,30,25,22,21,75,50,28,30.32,30.25,30.18,10,10,10,10,4,,0.00,1,,103
2013-1-27,57,46,35,54,41,25,100,83,49,30.17,30.01,29.89,10,10,7,21,14,28,0.04,7,Rain,147
2013-1-28,73,64,55,59,56,52,94,71,50,29.93,29.88,29.81,10,10,10,22,13,32,0.00,6,,175
2013-1-29,68,59,50,61,55,50,100,86,68,29.80,29.62,29.46,10,9,3,24,14,30,1.69,7,Rain-Thunderstorm,146
2013-1-30,50,38,26,50,30,18,100,87,69,29.97,29.69,29.42,10,9,2,26,14,37,0.05,8,Rain-Snow,258
2013-1-31,33,22,12,27,17,1,93,71,46,30.43,30.12,29.95,10,9,1,22,10,30,0.00,4,Snow,264